Time;durP1;ratioP1;P1;durP2;ratioP2;P2;SDS_P1;SDS_P2;PMS_P1;PMS_P2;Temp;Humidity;BMP_temperature;BMP_pressure;BME280_temperature;BME280_humidity;BME280_pressure;Samples;Min_cycle;Max_cycle;Signal;HPM_P1;HPM_P2
2023/03/27 00:00:46;;;;;;;6.10;1.30;;;;;;;;;;5153472;27;20490;-81
2023/03/27 00:03:14;;;;;;;4.82;1.73;;;;;;;;;;5137965;27;20038;-77
2023/03/27 00:05:41;;;;;;;9.27;1.30;;;;;;;;;;5140376;27;20046;-77
2023/03/27 00:08:11;;;;;;;6.80;1.60;;;;;;;;;;5154812;27;20042;-77
2023/03/27 00:10:37;;;;;;;6.75;1.25;;;;;;;;;;5124277;27;20394;-77
2023/03/27 00:13:04;;;;;;;10.38;1.52;;;;;;;;;;5137112;27;20054;-77
2023/03/27 00:15:31;;;;;;;7.63;1.30;;;;;;;;;;5150840;27;20034;-76
2023/03/27 00:17:57;;;;;;;9.88;2.33;;;;;;;;;;5158125;27;20407;-76
2023/03/27 00:20:24;;;;;;;8.90;1.60;;;;;;;;;;5151620;27;20051;-77
2023/03/27 00:22:55;;;;;;;6.65;1.30;;;;;;;;;;5154467;27;20051;-80
2023/03/27 00:25:26;;;;;;;6.63;1.25;;;;;;;;;;5154308;27;20043;-81
2023/03/27 00:27:55;;;;;;;8.23;1.42;;;;;;;;;;5154110;27;20048;-81
2023/03/27 00:30:21;;;;;;;11.20;1.90;;;;;;;;;;5154331;27;20521;-81
2023/03/27 00:32:47;;;;;;;10.00;1.83;;;;;;;;;;5153577;27;20047;-81
2023/03/27 00:35:13;;;;;;;12.00;1.88;;;;;;;;;;5153903;27;20091;-80
2023/03/27 00:37:40;;;;;;;9.90;1.90;;;;;;;;;;5119411;27;20035;-81
2023/03/27 00:40:08;;;;;;;11.27;2.03;;;;;;;;;;5154102;27;20495;-77
2023/03/27 00:42:35;;;;;;;7.40;1.80;;;;;;;;;;5153774;27;20482;-77
2023/03/27 00:45:01;;;;;;;8.60;1.83;;;;;;;;;;5153638;27;20103;-77
2023/03/27 00:47:32;;;;;;;6.00;1.90;;;;;;;;;;5153619;27;20071;-77
2023/03/27 00:50:00;;;;;;;10.02;1.90;;;;;;;;;;5153674;27;20050;-81
2023/03/27 00:52:28;;;;;;;9.63;1.40;;;;;;;;;;5153804;27;20042;-81
2023/03/27 00:54:55;;;;;;;15.45;1.75;;;;;;;;;;5153693;27;20042;-81
2023/03/27 00:57:22;;;;;;;6.68;1.60;;;;;;;;;;5136522;27;20041;-77
2023/03/27 00:59:51;;;;;;;8.35;1.38;;;;;;;;;;5153241;27;20039;-76
2023/03/27 01:02:17;;;;;;;8.43;1.60;;;;;;;;;;5147662;27;20471;-77
2023/03/27 01:04:44;;;;;;;8.73;1.52;;;;;;;;;;5136075;27;20475;-77
2023/03/27 01:07:11;;;;;;;7.75;1.48;;;;;;;;;;5153836;27;20043;-81
2023/03/27 01:09:37;;;;;;;7.78;1.83;;;;;;;;;;5108952;27;20502;-81
2023/03/27 01:12:10;;;;;;;9.07;1.80;;;;;;;;;;5131778;27;20039;-81
2023/03/27 01:14:39;;;;;;;6.38;1.38;;;;;;;;;;5146397;27;20047;-81
2023/03/27 01:17:24;;;;;;;12.15;1.65;;;;;;;;;;5125132;27;20043;-80
2023/03/27 01:20:06;;;;;;;11.18;1.50;;;;;;;;;;5152754;27;20046;-81
2023/03/27 01:22:57;;;;;;;5.65;1.70;;;;;;;;;;5135603;27;20030;-81
2023/03/27 01:25:41;;;;;;;7.80;1.77;;;;;;;;;;5154569;27;20398;-81
2023/03/27 01:28:11;;;;;;;10.63;1.58;;;;;;;;;;5112340;27;20474;-81
2023/03/27 01:30:56;;;;;;;8.60;1.80;;;;;;;;;;5135668;27;20035;-81
2023/03/27 01:33:41;;;;;;;7.45;1.77;;;;;;;;;;5126151;27;20398;-81
2023/03/27 01:36:07;;;;;;;9.23;1.60;;;;;;;;;;5152808;27;20095;-77
2023/03/27 01:38:56;;;;;;;6.75;1.30;;;;;;;;;;5152626;27;20054;-77
2023/03/27 01:41:35;;;;;;;7.70;1.40;;;;;;;;;;5125279;27;20049;-78
2023/03/27 01:44:10;;;;;;;10.48;1.55;;;;;;;;;;5135572;27;20091;-77
2023/03/27 01:46:40;;;;;;;11.60;1.88;;;;;;;;;;5152741;27;20396;-77
2023/03/27 01:49:28;;;;;;;4.43;1.13;;;;;;;;;;5152919;27;20126;-77
2023/03/27 01:52:05;;;;;;;11.48;1.48;;;;;;;;;;5152454;27;20165;-77
2023/03/27 01:54:35;;;;;;;8.48;1.40;;;;;;;;;;5127804;27;20510;-77
2023/03/27 01:57:08;;;;;;;5.13;1.30;;;;;;;;;;5129160;27;20034;-77
2023/03/27 01:59:37;;;;;;;5.10;1.00;;;;;;;;;;5152819;27;20038;-77
2023/03/27 02:02:06;;;;;;;7.40;1.20;;;;;;;;;;5105221;27;20031;-77
2023/03/27 02:04:38;;;;;;;9.38;1.42;;;;;;;;;;5129601;27;20039;-77
2023/03/27 02:07:06;;;;;;;8.68;1.55;;;;;;;;;;5123960;27;20559;-77
2023/03/27 02:09:34;;;;;;;4.63;1.30;;;;;;;;;;5136507;27;20056;-77
2023/03/27 02:12:24;;;;;;;8.23;1.20;;;;;;;;;;5152075;27;20043;-77
2023/03/27 02:15:00;;;;;;;9.00;1.42;;;;;;;;;;5142035;27;20091;-77
2023/03/27 02:17:27;;;;;;;10.07;1.23;;;;;;;;;;5152483;27;20026;-77
2023/03/27 02:20:13;;;;;;;10.25;1.60;;;;;;;;;;5152046;27;20415;-77
2023/03/27 02:22:40;;;;;;;5.70;1.30;;;;;;;;;;5152280;27;20035;-77
2023/03/27 02:25:21;;;;;;;7.88;1.42;;;;;;;;;;5152344;27;20049;-77
2023/03/27 02:27:48;;;;;;;7.47;1.13;;;;;;;;;;5136707;27;20130;-77
2023/03/27 02:30:22;;;;;;;6.10;1.10;;;;;;;;;;5157786;27;20099;-75
2023/03/27 02:32:52;;;;;;;5.45;1.08;;;;;;;;;;5156433;27;20050;-81
2023/03/27 02:35:28;;;;;;;6.07;1.35;;;;;;;;;;5156920;27;20070;-81
2023/03/27 02:38:07;;;;;;;7.65;1.33;;;;;;;;;;5157190;27;20498;-81
2023/03/27 02:40:37;;;;;;;5.78;1.20;;;;;;;;;;5156465;27;20074;-81
2023/03/27 02:43:10;;;;;;;5.72;1.08;;;;;;;;;;5156054;27;20046;-82
2023/03/27 02:45:36;;;;;;;6.10;0.82;;;;;;;;;;5139071;27;20386;-82
2023/03/27 02:48:08;;;;;;;4.65;1.33;;;;;;;;;;5156116;27;20559;-82
2023/03/27 02:50:43;;;;;;;6.97;1.30;;;;;;;;;;5156552;27;20491;-82
2023/03/27 02:53:10;;;;;;;7.50;1.15;;;;;;;;;;5155930;27;20039;-82
2023/03/27 02:55:42;;;;;;;6.55;1.20;;;;;;;;;;5139145;27;20364;-82
2023/03/27 02:58:13;;;;;;;6.97;1.02;;;;;;;;;;5147744;27;20172;-82
2023/03/27 03:00:46;;;;;;;6.13;1.13;;;;;;;;;;5123849;27;20031;-78
2023/03/27 03:03:30;;;;;;;9.82;1.10;;;;;;;;;;5126772;27;20043;-78
2023/03/27 03:05:57;;;;;;;4.97;1.23;;;;;;;;;;5131386;27;20058;-78
2023/03/27 03:08:23;;;;;;;5.25;1.10;;;;;;;;;;5103443;27;20054;-78
2023/03/27 03:10:49;;;;;;;8.93;1.17;;;;;;;;;;5151191;27;20045;-76
2023/03/27 03:13:16;;;;;;;5.53;1.10;;;;;;;;;;5138382;27;20087;-82
2023/03/27 03:15:44;;;;;;;6.55;1.30;;;;;;;;;;5150078;27;20368;-82
2023/03/27 03:18:11;;;;;;;6.85;1.25;;;;;;;;;;5135280;27;20047;-81
2023/03/27 03:20:38;;;;;;;7.18;1.23;;;;;;;;;;5134822;27;20043;-82
2023/03/27 03:23:05;;;;;;;5.82;1.08;;;;;;;;;;5117409;27;20054;-79
2023/03/27 03:25:32;;;;;;;5.38;1.05;;;;;;;;;;5134626;27;20104;-82
2023/03/27 03:27:58;;;;;;;7.38;1.50;;;;;;;;;;5117303;27;20068;-82
2023/03/27 03:30:29;;;;;;;8.30;1.73;;;;;;;;;;5134532;27;20050;-82
2023/03/27 03:32:55;;;;;;;9.77;1.30;;;;;;;;;;5142899;27;20123;-78
2023/03/27 03:35:22;;;;;;;7.75;1.45;;;;;;;;;;5134956;27;20540;-79
2023/03/27 03:37:50;;;;;;;7.10;1.38;;;;;;;;;;5133504;27;20118;-79
2023/03/27 03:40:17;;;;;;;5.88;1.10;;;;;;;;;;5134443;27;20043;-79
2023/03/27 03:42:44;;;;;;;8.13;1.30;;;;;;;;;;5134691;27;20077;-79
2023/03/27 03:45:10;;;;;;;7.40;1.30;;;;;;;;;;5134008;27;20047;-79
2023/03/27 03:47:36;;;;;;;9.68;1.55;;;;;;;;;;5117417;27;20536;-82
2023/03/27 03:50:02;;;;;;;9.40;1.30;;;;;;;;;;5135361;27;20433;-82
2023/03/27 03:52:29;;;;;;;5.38;1.25;;;;;;;;;;5117293;27;20035;-79
2023/03/27 03:54:55;;;;;;;10.02;1.50;;;;;;;;;;5100155;27;20485;-79
2023/03/27 03:57:21;;;;;;;5.80;1.75;;;;;;;;;;5136313;27;20043;-79
2023/03/27 03:59:47;;;;;;;4.72;1.23;;;;;;;;;;5138072;27;20496;-79
2023/03/27 04:02:26;;;;;;;7.85;1.40;;;;;;;;;;5148045;27;20130;-79
2023/03/27 04:04:53;;;;;;;6.18;1.52;;;;;;;;;;5133001;27;20035;-78
2023/03/27 04:07:22;;;;;;;8.23;1.88;;;;;;;;;;5124145;27;20043;-78
2023/03/27 04:09:49;;;;;;;5.97;1.42;;;;;;;;;;5136966;27;20095;-78
2023/03/27 04:12:15;;;;;;;9.00;1.45;;;;;;;;;;5155013;27;20074;-78
2023/03/27 04:14:42;;;;;;;5.60;1.40;;;;;;;;;;5154701;27;20070;-78
2023/03/27 04:17:08;;;;;;;8.18;1.27;;;;;;;;;;5154008;27;20038;-79
2023/03/27 04:19:34;;;;;;;4.03;1.33;;;;;;;;;;5154121;27;20047;-81
2023/03/27 04:22:01;;;;;;;6.13;1.52;;;;;;;;;;5157714;27;20046;-82
2023/03/27 04:24:29;;;;;;;5.97;1.52;;;;;;;;;;5158179;27;20094;-82
2023/03/27 04:27:02;;;;;;;10.85;1.77;;;;;;;;;;5177107;27;20045;-82
2023/03/27 04:29:29;;;;;;;7.25;1.50;;;;;;;;;;5157714;27;20037;-78
2023/03/27 04:31:58;;;;;;;5.22;1.27;;;;;;;;;;5175969;27;20066;-78
2023/03/27 04:34:24;;;;;;;11.30;1.58;;;;;;;;;;5153346;27;20506;-78
2023/03/27 04:36:51;;;;;;;3.22;1.08;;;;;;;;;;5147404;27;20048;-78
2023/03/27 04:39:21;;;;;;;6.68;2.08;;;;;;;;;;5139788;27;20117;-78
2023/03/27 04:41:50;;;;;;;5.68;1.25;;;;;;;;;;5158330;27;20394;-79
2023/03/27 04:44:16;;;;;;;7.63;1.75;;;;;;;;;;5157208;27;20045;-78
2023/03/27 04:46:49;;;;;;;4.93;1.20;;;;;;;;;;5175946;27;20042;-79
2023/03/27 04:49:19;;;;;;;7.53;1.30;;;;;;;;;;5156335;27;20057;-78
2023/03/27 04:51:45;;;;;;;7.55;1.52;;;;;;;;;;5175688;27;20045;-79
2023/03/27 04:54:12;;;;;;;5.50;1.60;;;;;;;;;;5157162;27;20098;-79
2023/03/27 04:56:39;;;;;;;11.35;1.73;;;;;;;;;;5142797;27;20042;-78
2023/03/27 04:59:05;;;;;;;11.68;1.85;;;;;;;;;;5145317;27;20042;-81
2023/03/27 05:01:32;;;;;;;7.53;1.80;;;;;;;;;;5137598;27;20550;-82
2023/03/27 05:04:01;;;;;;;7.93;1.90;;;;;;;;;;5175442;27;20117;-81
2023/03/27 05:06:27;;;;;;;6.35;1.92;;;;;;;;;;5153245;27;20042;-82
2023/03/27 05:08:54;;;;;;;10.45;1.80;;;;;;;;;;5142208;27;20406;-82
2023/03/27 05:11:20;;;;;;;8.82;1.92;;;;;;;;;;5136098;27;20470;-82
2023/03/27 05:13:46;;;;;;;7.43;1.70;;;;;;;;;;5136840;27;20420;-82
2023/03/27 05:16:12;;;;;;;9.57;1.80;;;;;;;;;;5136254;27;20037;-82
2023/03/27 05:18:40;;;;;;;9.32;2.05;;;;;;;;;;5135896;27;20121;-82
2023/03/27 05:21:07;;;;;;;10.77;2.17;;;;;;;;;;5132349;27;20051;-82
2023/03/27 05:23:33;;;;;;;8.25;1.70;;;;;;;;;;5132819;27;20449;-82
2023/03/27 05:25:59;;;;;;;10.25;2.08;;;;;;;;;;5132702;27;20104;-82
2023/03/27 05:28:25;;;;;;;9.00;2.00;;;;;;;;;;5143373;27;20046;-82
2023/03/27 05:30:51;;;;;;;10.38;2.70;;;;;;;;;;5153055;27;20045;-82
2023/03/27 05:33:18;;;;;;;11.02;2.83;;;;;;;;;;5152591;27;20453;-82
2023/03/27 05:35:47;;;;;;;8.00;1.30;;;;;;;;;;5154533;27;20030;-78
2023/03/27 05:38:13;;;;;;;8.90;1.65;;;;;;;;;;5152861;27;20099;-79
2023/03/27 05:40:39;;;;;;;6.40;1.33;;;;;;;;;;5138586;27;20414;-79
2023/03/27 05:43:06;;;;;;;8.90;1.50;;;;;;;;;;5152525;27;20039;-79
2023/03/27 05:45:32;;;;;;;6.38;1.30;;;;;;;;;;5149602;27;20039;-79
2023/03/27 05:47:59;;;;;;;4.53;1.23;;;;;;;;;;5141714;27;20072;-79
2023/03/27 05:50:36;;;;;;;5.38;1.30;;;;;;;;;;5152308;27;20042;-79
2023/03/27 05:53:07;;;;;;;7.30;1.92;;;;;;;;;;5152928;27;20492;-79
2023/03/27 05:55:33;;;;;;;7.93;1.48;;;;;;;;;;5152574;27;20170;-79
2023/03/27 05:57:59;;;;;;;3.63;1.10;;;;;;;;;;5152762;27;20053;-83
2023/03/27 06:00:26;;;;;;;6.82;1.25;;;;;;;;;;5150277;27;20214;-79
2023/03/27 06:02:59;;;;;;;5.60;1.20;;;;;;;;;;5152563;27;20049;-79
2023/03/27 06:05:28;;;;;;;5.07;1.45;;;;;;;;;;5152247;27;20046;-79
2023/03/27 06:07:57;;;;;;;5.28;1.20;;;;;;;;;;5107078;28;20518;-79
2023/03/27 06:10:24;;;;;;;7.15;0.90;;;;;;;;;;5100464;28;20039;-79
2023/03/27 06:12:58;;;;;;;6.18;0.93;;;;;;;;;;5131760;28;20096;-79
2023/03/27 06:15:24;;;;;;;6.22;1.50;;;;;;;;;;5132676;27;20092;-80
2023/03/27 06:17:50;;;;;;;7.03;1.10;;;;;;;;;;5133237;28;20085;-79
2023/03/27 06:20:18;;;;;;;3.90;1.00;;;;;;;;;;5113921;28;20051;-83
2023/03/27 06:23:00;;;;;;;5.10;1.25;;;;;;;;;;5089784;27;20386;-73
2023/03/27 06:25:30;;;;;;;5.18;0.90;;;;;;;;;;5071014;28;20071;-73
2023/03/27 06:27:56;;;;;;;5.28;1.00;;;;;;;;;;5088525;28;20058;-73
2023/03/27 06:30:23;;;;;;;8.02;1.42;;;;;;;;;;5087871;28;20036;-73
2023/03/27 06:32:53;;;;;;;4.88;1.20;;;;;;;;;;5088573;28;20047;-73
2023/03/27 06:35:20;;;;;;;5.00;1.05;;;;;;;;;;5087837;28;20485;-74
2023/03/27 06:37:49;;;;;;;3.38;1.05;;;;;;;;;;5088421;28;20569;-73
2023/03/27 06:40:21;;;;;;;6.55;1.20;;;;;;;;;;5087921;28;20067;-74
2023/03/27 06:42:53;;;;;;;5.30;0.80;;;;;;;;;;5071280;28;20044;-74
2023/03/27 06:45:19;;;;;;;4.13;0.90;;;;;;;;;;5070828;28;20036;-74
2023/03/27 06:47:49;;;;;;;5.63;1.23;;;;;;;;;;5088084;28;20437;-74
2023/03/27 06:50:15;;;;;;;5.50;1.00;;;;;;;;;;5087649;28;20098;-75
2023/03/27 06:52:41;;;;;;;6.50;0.90;;;;;;;;;;5088191;28;20043;-74
2023/03/27 06:55:08;;;;;;;5.90;0.80;;;;;;;;;;5071030;28;20070;-75
2023/03/27 06:57:35;;;;;;;4.05;0.93;;;;;;;;;;5087588;28;20055;-75
2023/03/27 07:00:02;;;;;;;8.50;1.02;;;;;;;;;;5087937;28;20093;-75
2023/03/27 07:02:28;;;;;;;5.57;1.10;;;;;;;;;;5087220;28;20048;-75
2023/03/27 07:04:54;;;;;;;4.68;1.20;;;;;;;;;;5081715;28;20049;-75
2023/03/27 07:07:20;;;;;;;6.70;1.30;;;;;;;;;;5067178;28;20040;-75
2023/03/27 07:09:48;;;;;;;5.32;1.00;;;;;;;;;;5082461;28;20093;-75
2023/03/27 07:12:14;;;;;;;4.70;1.10;;;;;;;;;;5079941;28;20493;-75
2023/03/27 07:14:40;;;;;;;5.82;1.00;;;;;;;;;;5081153;28;20580;-75
2023/03/27 07:17:07;;;;;;;5.40;1.00;;;;;;;;;;5087599;28;20497;-75
2023/03/27 07:19:33;;;;;;;6.15;1.08;;;;;;;;;;5087983;28;20044;-75
2023/03/27 07:21:59;;;;;;;9.95;1.92;;;;;;;;;;5070053;28;20127;-75
2023/03/27 07:24:25;;;;;;;4.78;1.17;;;;;;;;;;5086921;28;20062;-75
2023/03/27 07:26:51;;;;;;;5.32;1.30;;;;;;;;;;5087132;28;20037;-76
2023/03/27 07:29:17;;;;;;;6.68;1.40;;;;;;;;;;5078710;28;20075;-76
2023/03/27 07:31:43;;;;;;;5.07;1.10;;;;;;;;;;5081043;28;20047;-76
2023/03/27 07:34:10;;;;;;;5.53;1.20;;;;;;;;;;5058961;28;20048;-76
2023/03/27 07:36:36;;;;;;;5.40;1.15;;;;;;;;;;5053362;28;20550;-76
2023/03/27 07:39:02;;;;;;;6.13;1.20;;;;;;;;;;5036977;28;20493;-76
2023/03/27 07:41:31;;;;;;;5.25;1.05;;;;;;;;;;5036670;28;20037;-76
2023/03/27 07:43:57;;;;;;;4.72;0.75;;;;;;;;;;5053244;28;20041;-76
2023/03/27 07:46:24;;;;;;;3.92;1.00;;;;;;;;;;5053039;28;20033;-76
2023/03/27 07:48:50;;;;;;;4.97;0.90;;;;;;;;;;5053443;28;20083;-76
2023/03/27 07:51:17;;;;;;;7.97;0.85;;;;;;;;;;5053454;28;20482;-75
2023/03/27 07:53:43;;;;;;;5.20;0.85;;;;;;;;;;5053356;28;20056;-75
2023/03/27 07:56:10;;;;;;;4.80;1.00;;;;;;;;;;5053045;28;20052;-75
2023/03/27 07:58:36;;;;;;;4.90;0.90;;;;;;;;;;5052725;28;20072;-75
2023/03/27 08:01:03;;;;;;;4.57;1.08;;;;;;;;;;5045966;28;20091;-74
2023/03/27 08:03:30;;;;;;;4.13;1.00;;;;;;;;;;5040187;28;20041;-75
2023/03/27 08:05:57;;;;;;;5.80;0.70;;;;;;;;;;5054177;28;20041;-74
2023/03/27 08:08:23;;;;;;;5.22;1.33;;;;;;;;;;5056465;28;20485;-75
2023/03/27 08:10:50;;;;;;;3.65;0.75;;;;;;;;;;5056773;28;20075;-75
2023/03/27 08:13:17;;;;;;;4.03;0.90;;;;;;;;;;5057185;28;20052;-75
2023/03/27 08:15:43;;;;;;;3.30;0.60;;;;;;;;;;5052428;28;20033;-75
2023/03/27 08:18:10;;;;;;;5.20;0.93;;;;;;;;;;5052756;28;20071;-75
2023/03/27 08:20:36;;;;;;;3.75;0.75;;;;;;;;;;5035640;28;20494;-75
2023/03/27 08:23:03;;;;;;;5.05;0.70;;;;;;;;;;5052495;28;20045;-75
2023/03/27 08:25:31;;;;;;;2.83;0.60;;;;;;;;;;5053440;28;20379;-75
2023/03/27 08:27:58;;;;;;;1.88;0.50;;;;;;;;;;5053776;28;20055;-75
2023/03/27 08:30:25;;;;;;;3.05;0.60;;;;;;;;;;5051943;28;20071;-75
2023/03/27 08:32:51;;;;;;;5.00;0.80;;;;;;;;;;5052375;28;20102;-75
2023/03/27 08:35:17;;;;;;;5.10;0.80;;;;;;;;;;5054999;28;20099;-76
2023/03/27 08:37:43;;;;;;;4.07;1.13;;;;;;;;;;5052230;28;20048;-76
2023/03/27 08:40:20;;;;;;;4.88;0.90;;;;;;;;;;5068925;28;20080;-75
2023/03/27 08:42:49;;;;;;;5.15;0.80;;;;;;;;;;5051834;28;20402;-75
2023/03/27 08:45:22;;;;;;;5.18;0.98;;;;;;;;;;5051588;28;20080;-76
2023/03/27 08:47:58;;;;;;;4.55;0.73;;;;;;;;;;5051762;28;20075;-76
2023/03/27 08:50:31;;;;;;;3.58;1.00;;;;;;;;;;5052292;28;20058;-76
2023/03/27 08:52:58;;;;;;;4.30;1.02;;;;;;;;;;5052223;28;20048;-75
2023/03/27 08:55:39;;;;;;;4.85;0.93;;;;;;;;;;5052174;28;20076;-75
2023/03/27 08:58:05;;;;;;;6.55;1.10;;;;;;;;;;5052168;28;20099;-74
2023/03/27 09:00:35;;;;;;;5.05;1.10;;;;;;;;;;5048666;28;20079;-74
2023/03/27 09:03:04;;;;;;;6.35;1.05;;;;;;;;;;5043231;28;20041;-74
2023/03/27 09:05:41;;;;;;;7.97;1.45;;;;;;;;;;5051687;28;20489;-74
2023/03/27 09:08:10;;;;;;;4.75;1.10;;;;;;;;;;5051820;28;20045;-74
2023/03/27 09:10:49;;;;;;;8.05;1.35;;;;;;;;;;5051572;28;20033;-75
2023/03/27 09:13:15;;;;;;;4.22;0.90;;;;;;;;;;5051975;28;20539;-76
2023/03/27 09:15:53;;;;;;;5.90;1.55;;;;;;;;;;5051238;28;20085;-76
2023/03/27 09:18:40;;;;;;;7.00;1.33;;;;;;;;;;5051635;28;20037;-76
2023/03/27 09:21:25;;;;;;;6.10;1.23;;;;;;;;;;5057537;28;20045;-76
2023/03/27 09:23:54;;;;;;;4.88;1.10;;;;;;;;;;5050987;28;20052;-76
2023/03/27 09:26:22;;;;;;;5.80;1.58;;;;;;;;;;5051862;28;20481;-76
2023/03/27 09:28:50;;;;;;;3.95;1.00;;;;;;;;;;5051287;28;20482;-76
2023/03/27 09:31:23;;;;;;;7.10;1.00;;;;;;;;;;5051552;28;20047;-76
2023/03/27 09:33:49;;;;;;;4.47;1.20;;;;;;;;;;5051017;28;20048;-76
2023/03/27 09:36:16;;;;;;;5.50;1.15;;;;;;;;;;5051446;28;20099;-76
2023/03/27 09:38:45;;;;;;;3.30;1.10;;;;;;;;;;5051034;28;20132;-76
2023/03/27 09:41:16;;;;;;;4.28;0.93;;;;;;;;;;5051375;28;20489;-76
2023/03/27 09:44:11;;;;;;;5.53;1.15;;;;;;;;;;5050779;28;20037;-77
2023/03/27 09:46:39;;;;;;;4.10;0.90;;;;;;;;;;5080216;28;20049;-77
2023/03/27 09:49:16;;;;;;;5.95;1.20;;;;;;;;;;5034508;28;20045;-77
2023/03/27 09:51:50;;;;;;;7.00;1.10;;;;;;;;;;5034250;28;20047;-76
2023/03/27 09:54:17;;;;;;;6.72;1.40;;;;;;;;;;5034375;28;20040;-76
2023/03/27 09:56:45;;;;;;;4.68;0.90;;;;;;;;;;5050468;28;20043;-75
2023/03/27 09:59:31;;;;;;;3.58;0.80;;;;;;;;;;5050938;28;20045;-75
2023/03/27 10:01:59;;;;;;;3.67;1.17;;;;;;;;;;5046833;28;20045;-76
2023/03/27 10:04:26;;;;;;;2.65;0.80;;;;;;;;;;5051313;28;20531;-76
2023/03/27 10:07:00;;;;;;;7.30;0.98;;;;;;;;;;5050743;28;20612;-76
2023/03/27 10:09:33;;;;;;;6.20;1.15;;;;;;;;;;5063575;28;20044;-76
2023/03/27 10:12:06;;;;;;;4.20;1.40;;;;;;;;;;5070697;28;20052;-77
2023/03/27 10:14:33;;;;;;;3.45;1.20;;;;;;;;;;5071107;28;20052;-76
2023/03/27 10:17:00;;;;;;;4.93;0.95;;;;;;;;;;5054295;28;20496;-77
2023/03/27 10:19:32;;;;;;;3.95;0.80;;;;;;;;;;5071230;28;20512;-77
2023/03/27 10:22:01;;;;;;;5.63;0.90;;;;;;;;;;5070112;28;20052;-76
2023/03/27 10:24:32;;;;;;;6.75;1.30;;;;;;;;;;5070724;28;20048;-76
2023/03/27 10:26:59;;;;;;;3.72;0.90;;;;;;;;;;5070251;28;20053;-77
2023/03/27 10:29:30;;;;;;;5.05;0.70;;;;;;;;;;5054419;28;20090;-77
2023/03/27 10:31:57;;;;;;;3.47;0.60;;;;;;;;;;5071453;28;20382;-77
2023/03/27 10:34:28;;;;;;;4.53;1.50;;;;;;;;;;5070904;28;20120;-76
2023/03/27 10:36:54;;;;;;;3.88;0.80;;;;;;;;;;5070271;28;20509;-77
2023/03/27 10:39:23;;;;;;;3.85;0.80;;;;;;;;;;5070507;28;20097;-77
2023/03/27 10:41:50;;;;;;;3.63;0.70;;;;;;;;;;5070119;28;20049;-76
2023/03/27 10:44:18;;;;;;;4.90;0.90;;;;;;;;;;5053839;28;20036;-76
2023/03/27 10:46:45;;;;;;;4.25;0.82;;;;;;;;;;5058726;28;20041;-76
2023/03/27 10:49:14;;;;;;;3.88;0.57;;;;;;;;;;5052550;28;20146;-76
2023/03/27 10:51:46;;;;;;;3.70;0.77;;;;;;;;;;5050191;28;20497;-76
2023/03/27 10:54:13;;;;;;;3.42;0.80;;;;;;;;;;5050687;28;20041;-77
2023/03/27 10:56:50;;;;;;;8.10;0.80;;;;;;;;;;5049958;28;20037;-76
2023/03/27 10:59:20;;;;;;;3.65;0.70;;;;;;;;;;5050857;28;20041;-77
2023/03/27 11:01:49;;;;;;;3.90;1.00;;;;;;;;;;5049873;28;20555;-76
2023/03/27 11:04:39;;;;;;;3.63;0.90;;;;;;;;;;5050667;28;20524;-77
2023/03/27 11:07:08;;;;;;;7.20;1.25;;;;;;;;;;5074156;28;20563;-76
2023/03/27 11:09:36;;;;;;;3.63;0.80;;;;;;;;;;5067307;28;20044;-77
2023/03/27 11:12:04;;;;;;;4.57;1.00;;;;;;;;;;5073812;28;20044;-76
2023/03/27 11:14:49;;;;;;;4.47;1.00;;;;;;;;;;5074082;28;20051;-76
2023/03/27 11:17:20;;;;;;;7.57;1.00;;;;;;;;;;5047893;28;20102;-76
2023/03/27 11:19:52;;;;;;;4.75;1.23;;;;;;;;;;5073936;28;20659;-76
2023/03/27 11:22:28;;;;;;;3.35;0.82;;;;;;;;;;5073802;28;20079;-75
2023/03/27 11:25:04;;;;;;;4.05;0.82;;;;;;;;;;5074563;28;20064;-75
2023/03/27 11:27:47;;;;;;;4.65;0.75;;;;;;;;;;5048650;28;20040;-75
2023/03/27 11:30:23;;;;;;;5.53;0.68;;;;;;;;;;5057983;28;20041;-74
2023/03/27 11:33:04;;;;;;;7.63;1.13;;;;;;;;;;5053396;28;20501;-74
2023/03/27 11:35:36;;;;;;;4.13;1.38;;;;;;;;;;5053735;28;20067;-74
2023/03/27 11:38:06;;;;;;;7.30;1.00;;;;;;;;;;5036428;28;20075;-74
2023/03/27 11:40:41;;;;;;;5.68;1.15;;;;;;;;;;5053611;28;20477;-74
2023/03/27 11:43:09;;;;;;;6.22;1.33;;;;;;;;;;5053227;28;20509;-74
2023/03/27 11:45:56;;;;;;;5.25;0.93;;;;;;;;;;5036595;28;20112;-74
2023/03/27 11:48:22;;;;;;;;;;;;;;;;;;5076883;28;20128;-75
2023/03/27 11:50:48;;;;;;;3.00;0.90;;;;;;;;;;5052834;28;20016;-75
2023/03/27 11:53:17;;;;;;;5.25;1.00;;;;;;;;;;5036999;28;20083;-75
2023/03/27 11:55:43;;;;;;;7.95;1.10;;;;;;;;;;5053251;28;20047;-75
2023/03/27 11:58:25;;;;;;;5.72;1.13;;;;;;;;;;5052656;28;20037;-74
2023/03/27 12:00:52;;;;;;;7.15;1.00;;;;;;;;;;5047520;28;20498;-75
2023/03/27 12:03:27;;;;;;;4.00;0.80;;;;;;;;;;5052742;28;20551;-74
2023/03/27 12:06:00;;;;;;;9.98;1.30;;;;;;;;;;5052826;28;20040;-75
2023/03/27 12:08:26;;;;;;;6.55;1.00;;;;;;;;;;5057112;28;20040;-74
2023/03/27 12:10:54;;;;;;;6.63;1.00;;;;;;;;;;5045504;28;20087;-74
2023/03/27 12:13:40;;;;;;;7.78;1.00;;;;;;;;;;5069362;28;20115;-74
2023/03/27 12:16:07;;;;;;;3.17;1.00;;;;;;;;;;5065756;28;20405;-74
2023/03/27 12:18:42;;;;;;;5.93;1.00;;;;;;;;;;5074119;28;20098;-74
2023/03/27 12:21:09;;;;;;;4.03;1.10;;;;;;;;;;5071982;28;20068;-74
2023/03/27 12:23:36;;;;;;;5.63;1.05;;;;;;;;;;5072584;28;20135;-73
2023/03/27 12:26:08;;;;;;;4.93;1.10;;;;;;;;;;5072807;28;20037;-74
2023/03/27 12:28:37;;;;;;;6.30;0.90;;;;;;;;;;5056171;28;20032;-74
2023/03/27 12:31:23;;;;;;;5.80;1.13;;;;;;;;;;5055560;28;20056;-74
2023/03/27 12:34:00;;;;;;;3.67;1.10;;;;;;;;;;5072400;28;20048;-74
2023/03/27 12:36:27;;;;;;;7.75;1.73;;;;;;;;;;5073938;28;20047;-74
2023/03/27 12:38:56;;;;;;;7.82;1.02;;;;;;;;;;5057895;28;20139;-74
2023/03/27 12:41:30;;;;;;;8.65;1.70;;;;;;;;;;5055871;28;20041;-74
2023/03/27 12:43:57;;;;;;;6.78;1.35;;;;;;;;;;5055074;28;20039;-74
2023/03/27 12:46:23;;;;;;;6.18;1.00;;;;;;;;;;5072326;28;20064;-74
2023/03/27 12:48:51;;;;;;;6.30;0.98;;;;;;;;;;5072128;28;20036;-73
2023/03/27 12:51:19;;;;;;;5.78;0.93;;;;;;;;;;5055908;28;20043;-74
2023/03/27 12:53:46;;;;;;;6.05;1.10;;;;;;;;;;5072338;28;20093;-73
2023/03/27 12:56:16;;;;;;;11.05;1.60;;;;;;;;;;5054919;28;20119;-74
2023/03/27 12:58:46;;;;;;;7.13;1.10;;;;;;;;;;5073091;28;20036;-73
2023/03/27 13:01:17;;;;;;;8.05;1.20;;;;;;;;;;5063565;28;20507;-74
2023/03/27 13:04:02;;;;;;;6.93;1.05;;;;;;;;;;5063597;28;20040;-74
2023/03/27 13:06:51;;;;;;;8.02;1.33;;;;;;;;;;5073149;28;20040;-73
2023/03/27 13:09:35;;;;;;;7.47;1.30;;;;;;;;;;5071141;28;20124;-74
2023/03/27 13:12:17;;;;;;;7.60;2.20;;;;;;;;;;5071217;28;20080;-74
2023/03/27 13:15:02;;;;;;;5.40;0.98;;;;;;;;;;5071707;28;20079;-73
2023/03/27 13:17:54;;;;;;;6.03;1.17;;;;;;;;;;5049091;28;20045;-73
2023/03/27 13:20:38;;;;;;;7.93;1.00;;;;;;;;;;5071737;28;20552;-74
2023/03/27 13:23:14;;;;;;;6.40;1.15;;;;;;;;;;5071072;28;20049;-73
2023/03/27 13:25:48;;;;;;;7.68;1.75;;;;;;;;;;5071676;28;20036;-74
2023/03/27 13:28:24;;;;;;;5.95;1.10;;;;;;;;;;5071175;28;20511;-73
2023/03/27 13:30:51;;;;;;;5.60;0.82;;;;;;;;;;5044418;28;20210;-74
2023/03/27 13:33:17;;;;;;;5.45;1.00;;;;;;;;;;5058229;28;20049;-73
2023/03/27 13:35:51;;;;;;;7.90;1.20;;;;;;;;;;5053569;28;20044;-74
2023/03/27 13:38:17;;;;;;;10.75;1.30;;;;;;;;;;5070728;28;20147;-73
2023/03/27 13:40:44;;;;;;;8.98;1.20;;;;;;;;;;5071129;28;20075;-73
2023/03/27 13:43:20;;;;;;;7.70;0.90;;;;;;;;;;5070538;28;20219;-73
2023/03/27 13:45:51;;;;;;;9.77;1.40;;;;;;;;;;5071031;28;20090;-73
2023/03/27 13:48:27;;;;;;;7.68;1.00;;;;;;;;;;5071098;28;20492;-73
2023/03/27 13:51:13;;;;;;;5.53;0.90;;;;;;;;;;5071168;28;20453;-74
2023/03/27 13:53:39;;;;;;;7.60;1.08;;;;;;;;;;5072262;28;20040;-73
2023/03/27 13:56:24;;;;;;;9.00;0.93;;;;;;;;;;5070469;28;20040;-73
2023/03/27 13:59:02;;;;;;;7.18;1.10;;;;;;;;;;5070802;28;20080;-73
2023/03/27 14:01:32;;;;;;;6.72;1.00;;;;;;;;;;5022801;28;20045;-73
2023/03/27 14:04:02;;;;;;;5.47;0.80;;;;;;;;;;5079369;28;20115;-73
2023/03/27 14:06:52;;;;;;;5.50;0.90;;;;;;;;;;5050915;28;20033;-73
2023/03/27 14:09:35;;;;;;;6.97;1.20;;;;;;;;;;5061959;28;20102;-73
2023/03/27 14:12:07;;;;;;;5.70;1.05;;;;;;;;;;5070288;28;20055;-73
2023/03/27 14:14:36;;;;;;;5.93;1.00;;;;;;;;;;5069952;28;20044;-73
2023/03/27 14:17:02;;;;;;;9.50;1.65;;;;;;;;;;5050438;28;20049;-74
2023/03/27 14:19:36;;;;;;;5.90;1.00;;;;;;;;;;5050867;28;20049;-73
2023/03/27 14:22:21;;;;;;;8.35;1.15;;;;;;;;;;5050431;28;20053;-74
2023/03/27 14:24:52;;;;;;;7.03;1.00;;;;;;;;;;5050691;28;20044;-73
2023/03/27 14:27:19;;;;;;;5.03;1.10;;;;;;;;;;5034020;28;20029;-73
2023/03/27 14:29:48;;;;;;;6.03;1.20;;;;;;;;;;5050924;28;20518;-74
2023/03/27 14:32:16;;;;;;;5.93;1.00;;;;;;;;;;5050330;28;20520;-72
2023/03/27 14:34:52;;;;;;;6.55;1.00;;;;;;;;;;5051751;28;20121;-73
2023/03/27 14:37:27;;;;;;;7.20;1.00;;;;;;;;;;5050324;28;20115;-72
2023/03/27 14:39:55;;;;;;;6.50;1.00;;;;;;;;;;5050581;28;20091;-73
2023/03/27 14:42:25;;;;;;;7.55;1.10;;;;;;;;;;5050069;28;20055;-73
2023/03/27 14:44:52;;;;;;;8.05;1.20;;;;;;;;;;5037848;28;20045;-73
2023/03/27 14:47:20;;;;;;;10.77;1.60;;;;;;;;;;5037435;28;20040;-73
2023/03/27 14:49:48;;;;;;;8.48;1.20;;;;;;;;;;5054785;28;20420;-72
2023/03/27 14:52:20;;;;;;;6.80;1.30;;;;;;;;;;5055240;28;20049;-72
2023/03/27 14:54:46;;;;;;;8.23;1.88;;;;;;;;;;5054458;28;20053;-72
2023/03/27 14:57:13;;;;;;;6.28;1.27;;;;;;;;;;5054117;28;20138;-73
2023/03/27 14:59:43;;;;;;;8.90;1.02;;;;;;;;;;5070740;28;20051;-72
2023/03/27 15:02:18;;;;;;;7.32;1.17;;;;;;;;;;5051841;28;20068;-72